sensor_id;sensor_type;location;lat;lon;timestamp;temperature;humidity
76168;DHT22;64927;48.214;16.378;2024-01-07T00:01:48;5.00;82.10
76168;DHT22;64927;48.214;16.378;2024-01-07T00:04:15;5.00;83.70
76168;DHT22;64927;48.214;16.378;2024-01-07T00:06:41;5.00;82.00
76168;DHT22;64927;48.214;16.378;2024-01-07T00:09:06;5.00;82.50
76168;DHT22;64927;48.214;16.378;2024-01-07T00:11:34;5.10;81.90
76168;DHT22;64927;48.214;16.378;2024-01-07T00:14:00;5.00;81.90
76168;DHT22;64927;48.214;16.378;2024-01-07T00:16:25;4.90;81.60
76168;DHT22;64927;48.214;16.378;2024-01-07T00:18:51;4.90;82.20
76168;DHT22;64927;48.214;16.378;2024-01-07T00:21:16;4.90;81.50
76168;DHT22;64927;48.214;16.378;2024-01-07T00:23:42;4.90;82.50
76168;DHT22;64927;48.214;16.378;2024-01-07T00:26:09;4.80;82.40
76168;DHT22;64927;48.214;16.378;2024-01-07T00:28:37;4.80;82.10
76168;DHT22;64927;48.214;16.378;2024-01-07T00:31:03;5.00;81.10
76168;DHT22;64927;48.214;16.378;2024-01-07T00:33:31;4.80;81.50
76168;DHT22;64927;48.214;16.378;2024-01-07T00:35:57;4.60;81.10
76168;DHT22;64927;48.214;16.378;2024-01-07T00:38:22;4.50;81.60
76168;DHT22;64927;48.214;16.378;2024-01-07T00:40:48;4.50;81.40
76168;DHT22;64927;48.214;16.378;2024-01-07T00:43:14;4.50;82.10
76168;DHT22;64927;48.214;16.378;2024-01-07T00:45:39;4.40;81.90
76168;DHT22;64927;48.214;16.378;2024-01-07T00:48:05;4.40;82.20
76168;DHT22;64927;48.214;16.378;2024-01-07T00:50:33;4.30;82.20
76168;DHT22;64927;48.214;16.378;2024-01-07T00:52:59;4.40;82.70
76168;DHT22;64927;48.214;16.378;2024-01-07T00:55:25;4.20;82.00
76168;DHT22;64927;48.214;16.378;2024-01-07T00:57:50;4.20;83.50
76168;DHT22;64927;48.214;16.378;2024-01-07T01:00:19;4.30;83.60
76168;DHT22;64927;48.214;16.378;2024-01-07T01:02:45;4.50;82.80
76168;DHT22;64927;48.214;16.378;2024-01-07T01:05:11;4.40;82.00
76168;DHT22;64927;48.214;16.378;2024-01-07T01:07:37;4.30;81.90
76168;DHT22;64927;48.214;16.378;2024-01-07T01:10:03;4.40;82.50
76168;DHT22;64927;48.214;16.378;2024-01-07T01:12:31;4.30;81.90
76168;DHT22;64927;48.214;16.378;2024-01-07T01:14:56;4.30;82.60
76168;DHT22;64927;48.214;16.378;2024-01-07T01:17:22;4.30;82.50
76168;DHT22;64927;48.214;16.378;2024-01-07T01:19:47;4.30;82.30
76168;DHT22;64927;48.214;16.378;2024-01-07T01:22:15;4.40;82.60
76168;DHT22;64927;48.214;16.378;2024-01-07T01:24:41;4.20;81.50
76168;DHT22;64927;48.214;16.378;2024-01-07T01:27:08;4.20;81.70
76168;DHT22;64927;48.214;16.378;2024-01-07T01:29:36;4.10;82.50
76168;DHT22;64927;48.214;16.378;2024-01-07T01:32:01;4.10;83.20
76168;DHT22;64927;48.214;16.378;2024-01-07T01:34:31;4.00;83.20
76168;DHT22;64927;48.214;16.378;2024-01-07T01:36:59;4.00;83.80
76168;DHT22;64927;48.214;16.378;2024-01-07T01:39:25;4.10;83.80
76168;DHT22;64927;48.214;16.378;2024-01-07T01:41:50;4.20;83.50
76168;DHT22;64927;48.214;16.378;2024-01-07T01:44:16;4.30;82.00
76168;DHT22;64927;48.214;16.378;2024-01-07T01:46:42;4.20;81.30
76168;DHT22;64927;48.214;16.378;2024-01-07T01:49:10;4.00;81.30
76168;DHT22;64927;48.214;16.378;2024-01-07T01:51:35;4.00;81.80
76168;DHT22;64927;48.214;16.378;2024-01-07T01:54:01;3.90;82.70
76168;DHT22;64927;48.214;16.378;2024-01-07T01:56:30;4.10;83.20
76168;DHT22;64927;48.214;16.378;2024-01-07T01:58:59;3.90;81.50
76168;DHT22;64927;48.214;16.378;2024-01-07T02:01:25;3.80;82.10
76168;DHT22;64927;48.214;16.378;2024-01-07T02:03:53;3.80;82.70
76168;DHT22;64927;48.214;16.378;2024-01-07T02:06:20;3.80;83.20
76168;DHT22;64927;48.214;16.378;2024-01-07T02:08:46;3.90;83.50
76168;DHT22;64927;48.214;16.378;2024-01-07T02:11:19;3.90;83.50
76168;DHT22;64927;48.214;16.378;2024-01-07T02:13:45;3.90;82.90
76168;DHT22;64927;48.214;16.378;2024-01-07T02:16:14;3.90;82.80
76168;DHT22;64927;48.214;16.378;2024-01-07T02:18:41;3.90;81.90
76168;DHT22;64927;48.214;16.378;2024-01-07T02:21:08;4.00;82.40
76168;DHT22;64927;48.214;16.378;2024-01-07T02:23:34;4.00;81.20
76168;DHT22;64927;48.214;16.378;2024-01-07T02:26:03;3.90;79.90
76168;DHT22;64927;48.214;16.378;2024-01-07T02:28:33;3.80;80.40
76168;DHT22;64927;48.214;16.378;2024-01-07T02:31:01;3.80;81.90
76168;DHT22;64927;48.214;16.378;2024-01-07T02:33:27;3.80;82.40
76168;DHT22;64927;48.214;16.378;2024-01-07T02:35:53;3.80;82.20
76168;DHT22;64927;48.214;16.378;2024-01-07T02:38:19;3.70;82.70
76168;DHT22;64927;48.214;16.378;2024-01-07T02:40:47;3.80;83.10
76168;DHT22;64927;48.214;16.378;2024-01-07T02:43:15;3.70;83.40
76168;DHT22;64927;48.214;16.378;2024-01-07T02:45:40;3.80;83.70
76168;DHT22;64927;48.214;16.378;2024-01-07T02:48:06;3.90;81.90
76168;DHT22;64927;48.214;16.378;2024-01-07T02:50:32;3.80;80.40
76168;DHT22;64927;48.214;16.378;2024-01-07T02:52:58;3.70;80.80
76168;DHT22;64927;48.214;16.378;2024-01-07T02:55:26;3.70;81.50
76168;DHT22;64927;48.214;16.378;2024-01-07T02:57:51;3.80;81.30
76168;DHT22;64927;48.214;16.378;2024-01-07T03:00:17;3.80;81.00
76168;DHT22;64927;48.214;16.378;2024-01-07T03:02:43;3.90;80.90
76168;DHT22;64927;48.214;16.378;2024-01-07T03:05:08;3.70;79.90
76168;DHT22;64927;48.214;16.378;2024-01-07T03:07:34;3.60;80.50
76168;DHT22;64927;48.214;16.378;2024-01-07T03:10:05;3.70;81.60
76168;DHT22;64927;48.214;16.378;2024-01-07T03:12:30;3.60;81.80
76168;DHT22;64927;48.214;16.378;2024-01-07T03:14:56;3.60;81.30
76168;DHT22;64927;48.214;16.378;2024-01-07T03:17:21;3.70;80.80
76168;DHT22;64927;48.214;16.378;2024-01-07T03:19:49;3.70;81.80
76168;DHT22;64927;48.214;16.378;2024-01-07T03:22:15;3.80;80.30
76168;DHT22;64927;48.214;16.378;2024-01-07T03:24:44;3.80;80.30
76168;DHT22;64927;48.214;16.378;2024-01-07T03:27:09;3.70;80.00
76168;DHT22;64927;48.214;16.378;2024-01-07T03:29:35;3.70;80.80
76168;DHT22;64927;48.214;16.378;2024-01-07T03:32:01;3.70;80.10
76168;DHT22;64927;48.214;16.378;2024-01-07T03:34:27;3.80;80.70
76168;DHT22;64927;48.214;16.378;2024-01-07T03:36:55;3.70;79.40
76168;DHT22;64927;48.214;16.378;2024-01-07T03:39:20;3.70;80.30
76168;DHT22;64927;48.214;16.378;2024-01-07T03:41:46;3.90;80.70
76168;DHT22;64927;48.214;16.378;2024-01-07T03:44:12;3.90;79.40
76168;DHT22;64927;48.214;16.378;2024-01-07T03:46:37;3.70;77.90
76168;DHT22;64927;48.214;16.378;2024-01-07T03:49:03;3.60;77.50
76168;DHT22;64927;48.214;16.378;2024-01-07T03:51:28;3.60;79.10
76168;DHT22;64927;48.214;16.378;2024-01-07T03:53:54;3.50;79.20
76168;DHT22;64927;48.214;16.378;2024-01-07T03:56:19;3.60;79.80
76168;DHT22;64927;48.214;16.378;2024-01-07T03:58:45;3.50;78.20
76168;DHT22;64927;48.214;16.378;2024-01-07T04:01:18;3.50;79.00
76168;DHT22;64927;48.214;16.378;2024-01-07T04:03:43;3.50;79.40
76168;DHT22;64927;48.214;16.378;2024-01-07T04:06:11;3.40;79.20
76168;DHT22;64927;48.214;16.378;2024-01-07T04:08:39;3.30;80.00
76168;DHT22;64927;48.214;16.378;2024-01-07T04:11:04;3.50;81.70
76168;DHT22;64927;48.214;16.378;2024-01-07T04:13:30;3.50;80.10
76168;DHT22;64927;48.214;16.378;2024-01-07T04:15:55;3.60;80.50
76168;DHT22;64927;48.214;16.378;2024-01-07T04:18:21;3.60;78.80
76168;DHT22;64927;48.214;16.378;2024-01-07T04:20:47;3.40;78.00
76168;DHT22;64927;48.214;16.378;2024-01-07T04:23:12;3.30;77.30
76168;DHT22;64927;48.214;16.378;2024-01-07T04:25:38;3.20;77.50
76168;DHT22;64927;48.214;16.378;2024-01-07T04:28:06;3.40;77.90
76168;DHT22;64927;48.214;16.378;2024-01-07T04:30:31;3.30;77.60
76168;DHT22;64927;48.214;16.378;2024-01-07T04:32:59;3.30;77.70
76168;DHT22;64927;48.214;16.378;2024-01-07T04:35:25;3.50;78.90
76168;DHT22;64927;48.214;16.378;2024-01-07T04:37:50;3.50;78.40
76168;DHT22;64927;48.214;16.378;2024-01-07T04:40:16;3.60;79.20
76168;DHT22;64927;48.214;16.378;2024-01-07T04:42:41;3.60;79.10
76168;DHT22;64927;48.214;16.378;2024-01-07T04:45:07;3.60;79.30
76168;DHT22;64927;48.214;16.378;2024-01-07T04:47:33;3.60;79.20
76168;DHT22;64927;48.214;16.378;2024-01-07T04:50:00;3.40;80.10
76168;DHT22;64927;48.214;16.378;2024-01-07T04:52:25;3.50;80.40
76168;DHT22;64927;48.214;16.378;2024-01-07T04:54:52;3.40;78.80
76168;DHT22;64927;48.214;16.378;2024-01-07T04:57:18;3.30;77.60
76168;DHT22;64927;48.214;16.378;2024-01-07T04:59:49;3.30;78.20
76168;DHT22;64927;48.214;16.378;2024-01-07T05:02:15;3.30;78.90
76168;DHT22;64927;48.214;16.378;2024-01-07T05:04:41;3.40;79.60
76168;DHT22;64927;48.214;16.378;2024-01-07T05:07:07;3.40;79.80
76168;DHT22;64927;48.214;16.378;2024-01-07T05:09:33;3.50;79.30
76168;DHT22;64927;48.214;16.378;2024-01-07T05:11:59;3.60;79.70
76168;DHT22;64927;48.214;16.378;2024-01-07T05:14:25;3.60;79.20
76168;DHT22;64927;48.214;16.378;2024-01-07T05:16:50;3.50;78.80
76168;DHT22;64927;48.214;16.378;2024-01-07T05:19:16;3.50;78.50
76168;DHT22;64927;48.214;16.378;2024-01-07T05:21:46;3.40;78.70
76168;DHT22;64927;48.214;16.378;2024-01-07T05:24:14;3.60;78.70
76168;DHT22;64927;48.214;16.378;2024-01-07T05:26:42;3.40;78.90
76168;DHT22;64927;48.214;16.378;2024-01-07T05:29:08;3.40;78.00
76168;DHT22;64927;48.214;16.378;2024-01-07T05:31:34;3.30;78.80
76168;DHT22;64927;48.214;16.378;2024-01-07T05:34:00;3.30;78.50
76168;DHT22;64927;48.214;16.378;2024-01-07T05:36:25;3.30;78.60
76168;DHT22;64927;48.214;16.378;2024-01-07T05:38:51;3.40;78.40
76168;DHT22;64927;48.214;16.378;2024-01-07T05:41:17;3.20;78.40
76168;DHT22;64927;48.214;16.378;2024-01-07T05:43:42;3.20;77.70
76168;DHT22;64927;48.214;16.378;2024-01-07T05:46:10;3.30;78.60
76168;DHT22;64927;48.214;16.378;2024-01-07T05:48:44;3.10;79.30
76168;DHT22;64927;48.214;16.378;2024-01-07T05:51:11;3.10;79.70
76168;DHT22;64927;48.214;16.378;2024-01-07T05:53:37;3.10;80.70
76168;DHT22;64927;48.214;16.378;2024-01-07T05:56:03;3.30;81.00
76168;DHT22;64927;48.214;16.378;2024-01-07T05:58:29;3.40;80.00
76168;DHT22;64927;48.214;16.378;2024-01-07T06:00:55;3.40;80.30
76168;DHT22;64927;48.214;16.378;2024-01-07T06:03:20;3.60;80.20
76168;DHT22;64927;48.214;16.378;2024-01-07T06:05:46;3.60;79.40
76168;DHT22;64927;48.214;16.378;2024-01-07T06:08:14;3.50;77.90
76168;DHT22;64927;48.214;16.378;2024-01-07T06:10:43;3.30;77.70
76168;DHT22;64927;48.214;16.378;2024-01-07T06:13:09;3.30;78.80
76168;DHT22;64927;48.214;16.378;2024-01-07T06:15:34;3.30;79.00
76168;DHT22;64927;48.214;16.378;2024-01-07T06:18:00;3.10;78.10
76168;DHT22;64927;48.214;16.378;2024-01-07T06:20:28;2.90;78.70
76168;DHT22;64927;48.214;16.378;2024-01-07T06:22:53;2.90;79.50
76168;DHT22;64927;48.214;16.378;2024-01-07T06:25:19;2.90;79.00
76168;DHT22;64927;48.214;16.378;2024-01-07T06:27:46;2.80;79.20
76168;DHT22;64927;48.214;16.378;2024-01-07T06:30:14;2.80;80.20
76168;DHT22;64927;48.214;16.378;2024-01-07T06:32:43;2.70;79.10
76168;DHT22;64927;48.214;16.378;2024-01-07T06:35:08;2.60;78.60
76168;DHT22;64927;48.214;16.378;2024-01-07T06:37:39;2.60;79.10
76168;DHT22;64927;48.214;16.378;2024-01-07T06:40:07;2.60;79.40
76168;DHT22;64927;48.214;16.378;2024-01-07T06:42:32;2.70;79.50
76168;DHT22;64927;48.214;16.378;2024-01-07T06:44:58;2.70;79.50
76168;DHT22;64927;48.214;16.378;2024-01-07T06:47:23;2.70;80.10
76168;DHT22;64927;48.214;16.378;2024-01-07T06:49:49;2.90;80.30
76168;DHT22;64927;48.214;16.378;2024-01-07T06:52:15;2.90;78.20
76168;DHT22;64927;48.214;16.378;2024-01-07T06:54:40;2.80;77.60
76168;DHT22;64927;48.214;16.378;2024-01-07T06:57:06;2.80;78.70
76168;DHT22;64927;48.214;16.378;2024-01-07T06:59:34;2.70;77.80
76168;DHT22;64927;48.214;16.378;2024-01-07T07:02:02;2.50;78.20
76168;DHT22;64927;48.214;16.378;2024-01-07T07:04:28;2.60;79.90
76168;DHT22;64927;48.214;16.378;2024-01-07T07:06:56;2.60;80.10
76168;DHT22;64927;48.214;16.378;2024-01-07T07:09:23;2.60;79.80
76168;DHT22;64927;48.214;16.378;2024-01-07T07:11:51;2.50;80.20
76168;DHT22;64927;48.214;16.378;2024-01-07T07:14:19;2.40;79.90
76168;DHT22;64927;48.214;16.378;2024-01-07T07:16:47;2.40;81.20
76168;DHT22;64927;48.214;16.378;2024-01-07T07:19:15;2.30;80.30
76168;DHT22;64927;48.214;16.378;2024-01-07T07:21:42;2.10;79.90
76168;DHT22;64927;48.214;16.378;2024-01-07T07:24:08;2.10;81.00
76168;DHT22;64927;48.214;16.378;2024-01-07T07:26:34;2.10;80.40
76168;DHT22;64927;48.214;16.378;2024-01-07T07:29:01;2.20;81.50
76168;DHT22;64927;48.214;16.378;2024-01-07T07:31:27;2.30;79.60
76168;DHT22;64927;48.214;16.378;2024-01-07T07:33:52;2.20;78.00
76168;DHT22;64927;48.214;16.378;2024-01-07T07:36:18;2.10;79.10
76168;DHT22;64927;48.214;16.378;2024-01-07T07:38:46;1.90;79.10
76168;DHT22;64927;48.214;16.378;2024-01-07T07:41:12;2.00;80.40
76168;DHT22;64927;48.214;16.378;2024-01-07T07:43:37;2.00;80.90
76168;DHT22;64927;48.214;16.378;2024-01-07T07:46:05;2.00;81.60
76168;DHT22;64927;48.214;16.378;2024-01-07T07:48:31;2.10;82.10
76168;DHT22;64927;48.214;16.378;2024-01-07T07:50:59;2.10;81.80
76168;DHT22;64927;48.214;16.378;2024-01-07T07:53:27;2.20;82.60
76168;DHT22;64927;48.214;16.378;2024-01-07T07:55:55;2.30;82.70
76168;DHT22;64927;48.214;16.378;2024-01-07T07:58:23;2.30;82.90
76168;DHT22;64927;48.214;16.378;2024-01-07T08:00:48;2.40;82.00
76168;DHT22;64927;48.214;16.378;2024-01-07T08:03:14;2.30;81.60
76168;DHT22;64927;48.214;16.378;2024-01-07T08:05:42;2.20;79.40
76168;DHT22;64927;48.214;16.378;2024-01-07T08:08:08;2.20;79.40
76168;DHT22;64927;48.214;16.378;2024-01-07T08:10:35;2.20;79.30
76168;DHT22;64927;48.214;16.378;2024-01-07T08:13:01;2.20;78.80
76168;DHT22;64927;48.214;16.378;2024-01-07T08:15:27;2.20;79.10
76168;DHT22;64927;48.214;16.378;2024-01-07T08:17:55;2.20;80.20
76168;DHT22;64927;48.214;16.378;2024-01-07T08:20:20;2.20;78.90
76168;DHT22;64927;48.214;16.378;2024-01-07T08:22:48;2.20;79.40
76168;DHT22;64927;48.214;16.378;2024-01-07T08:25:14;2.20;80.70
76168;DHT22;64927;48.214;16.378;2024-01-07T08:27:43;2.20;80.90
76168;DHT22;64927;48.214;16.378;2024-01-07T08:30:11;2.10;80.50
76168;DHT22;64927;48.214;16.378;2024-01-07T08:32:39;2.00;80.40
76168;DHT22;64927;48.214;16.378;2024-01-07T08:35:07;2.10;80.10
76168;DHT22;64927;48.214;16.378;2024-01-07T08:37:34;2.10;79.00
76168;DHT22;64927;48.214;16.378;2024-01-07T08:39:59;1.90;77.10
76168;DHT22;64927;48.214;16.378;2024-01-07T08:42:26;2.00;76.10
76168;DHT22;64927;48.214;16.378;2024-01-07T08:44:52;2.10;75.90
76168;DHT22;64927;48.214;16.378;2024-01-07T08:47:22;2.10;74.00
76168;DHT22;64927;48.214;16.378;2024-01-07T08:49:48;2.10;73.60
76168;DHT22;64927;48.214;16.378;2024-01-07T08:52:13;2.20;73.80
76168;DHT22;64927;48.214;16.378;2024-01-07T08:54:41;2.20;73.20
76168;DHT22;64927;48.214;16.378;2024-01-07T08:57:07;2.20;74.70
76168;DHT22;64927;48.214;16.378;2024-01-07T08:59:33;2.10;75.40
76168;DHT22;64927;48.214;16.378;2024-01-07T09:02:01;2.30;76.30
76168;DHT22;64927;48.214;16.378;2024-01-07T09:04:30;2.30;76.40
76168;DHT22;64927;48.214;16.378;2024-01-07T09:06:56;2.20;77.40
76168;DHT22;64927;48.214;16.378;2024-01-07T09:09:21;2.00;78.50
76168;DHT22;64927;48.214;16.378;2024-01-07T09:11:49;2.10;79.00
76168;DHT22;64927;48.214;16.378;2024-01-07T09:14:15;2.20;80.20
76168;DHT22;64927;48.214;16.378;2024-01-07T09:16:40;2.20;80.50
76168;DHT22;64927;48.214;16.378;2024-01-07T09:19:06;2.20;80.00
76168;DHT22;64927;48.214;16.378;2024-01-07T09:21:31;2.20;80.60
76168;DHT22;64927;48.214;16.378;2024-01-07T09:23:57;2.40;80.30
76168;DHT22;64927;48.214;16.378;2024-01-07T09:26:23;2.50;79.50
76168;DHT22;64927;48.214;16.378;2024-01-07T09:28:48;2.30;78.50
76168;DHT22;64927;48.214;16.378;2024-01-07T09:31:17;2.40;78.20
76168;DHT22;64927;48.214;16.378;2024-01-07T09:33:42;2.30;76.00
76168;DHT22;64927;48.214;16.378;2024-01-07T09:36:08;2.30;76.60
76168;DHT22;64927;48.214;16.378;2024-01-07T09:38:34;2.40;78.40
76168;DHT22;64927;48.214;16.378;2024-01-07T09:41:02;2.30;78.90
76168;DHT22;64927;48.214;16.378;2024-01-07T09:43:30;2.40;79.70
76168;DHT22;64927;48.214;16.378;2024-01-07T09:45:56;2.30;80.20
76168;DHT22;64927;48.214;16.378;2024-01-07T09:48:22;2.40;81.60
76168;DHT22;64927;48.214;16.378;2024-01-07T09:50:48;2.50;81.10
76168;DHT22;64927;48.214;16.378;2024-01-07T09:53:20;2.50;79.60
76168;DHT22;64927;48.214;16.378;2024-01-07T09:58:20;2.50;79.30
76168;DHT22;64927;48.214;16.378;2024-01-07T10:00:46;2.40;78.70
76168;DHT22;64927;48.214;16.378;2024-01-07T10:03:14;2.60;77.50
76168;DHT22;64927;48.214;16.378;2024-01-07T10:05:40;2.50;78.00
76168;DHT22;64927;48.214;16.378;2024-01-07T10:08:06;2.60;78.80
76168;DHT22;64927;48.214;16.378;2024-01-07T10:10:32;2.70;79.10
76168;DHT22;64927;48.214;16.378;2024-01-07T10:13:00;2.60;76.90
76168;DHT22;64927;48.214;16.378;2024-01-07T10:15:25;2.40;78.20
76168;DHT22;64927;48.214;16.378;2024-01-07T10:17:55;2.60;77.40
76168;DHT22;64927;48.214;16.378;2024-01-07T10:20:23;2.60;77.60
76168;DHT22;64927;48.214;16.378;2024-01-07T10:22:52;2.60;76.80
76168;DHT22;64927;48.214;16.378;2024-01-07T10:25:18;2.70;77.60
76168;DHT22;64927;48.214;16.378;2024-01-07T10:27:44;2.60;77.50
76168;DHT22;64927;48.214;16.378;2024-01-07T10:30:12;2.70;76.50
76168;DHT22;64927;48.214;16.378;2024-01-07T10:32:38;2.80;75.60
76168;DHT22;64927;48.214;16.378;2024-01-07T10:35:04;2.70;74.60
76168;DHT22;64927;48.214;16.378;2024-01-07T10:37:32;2.70;75.10
76168;DHT22;64927;48.214;16.378;2024-01-07T10:39:59;2.70;75.10
76168;DHT22;64927;48.214;16.378;2024-01-07T10:42:32;2.50;75.40
76168;DHT22;64927;48.214;16.378;2024-01-07T10:44:59;2.70;76.70
76168;DHT22;64927;48.214;16.378;2024-01-07T10:47:31;2.70;75.40
76168;DHT22;64927;48.214;16.378;2024-01-07T10:49:58;2.70;75.40
76168;DHT22;64927;48.214;16.378;2024-01-07T10:52:26;2.60;75.40
76168;DHT22;64927;48.214;16.378;2024-01-07T10:54:56;2.60;75.50
76168;DHT22;64927;48.214;16.378;2024-01-07T10:57:32;2.50;75.70
76168;DHT22;64927;48.214;16.378;2024-01-07T11:00:00;2.50;75.10
76168;DHT22;64927;48.214;16.378;2024-01-07T11:02:34;2.50;75.40
76168;DHT22;64927;48.214;16.378;2024-01-07T11:05:08;2.50;75.10
76168;DHT22;64927;48.214;16.378;2024-01-07T11:07:43;2.50;74.90
76168;DHT22;64927;48.214;16.378;2024-01-07T11:10:16;2.60;75.30
76168;DHT22;64927;48.214;16.378;2024-01-07T11:12:43;2.60;74.80
76168;DHT22;64927;48.214;16.378;2024-01-07T11:15:09;2.40;73.50
76168;DHT22;64927;48.214;16.378;2024-01-07T11:20:02;2.50;75.00
76168;DHT22;64927;48.214;16.378;2024-01-07T11:22:28;2.40;74.10
76168;DHT22;64927;48.214;16.378;2024-01-07T11:24:57;2.40;74.60
76168;DHT22;64927;48.214;16.378;2024-01-07T11:27:25;2.50;75.50
76168;DHT22;64927;48.214;16.378;2024-01-07T11:29:58;2.50;74.90
76168;DHT22;64927;48.214;16.378;2024-01-07T11:32:29;2.50;76.10
76168;DHT22;64927;48.214;16.378;2024-01-07T11:34:57;2.40;75.40
76168;DHT22;64927;48.214;16.378;2024-01-07T11:37:25;2.50;75.90
76168;DHT22;64927;48.214;16.378;2024-01-07T11:39:55;2.40;75.20
76168;DHT22;64927;48.214;16.378;2024-01-07T11:42:22;2.50;76.20
76168;DHT22;64927;48.214;16.378;2024-01-07T11:44:52;2.50;75.20
76168;DHT22;64927;48.214;16.378;2024-01-07T11:47:21;2.50;73.80
76168;DHT22;64927;48.214;16.378;2024-01-07T11:49:48;2.40;75.40
76168;DHT22;64927;48.214;16.378;2024-01-07T11:52:17;2.50;75.20
76168;DHT22;64927;48.214;16.378;2024-01-07T11:54:44;2.50;74.20
76168;DHT22;64927;48.214;16.378;2024-01-07T11:57:10;2.40;74.10
76168;DHT22;64927;48.214;16.378;2024-01-07T11:59:36;2.50;75.00
76168;DHT22;64927;48.214;16.378;2024-01-07T12:02:03;2.50;72.80
76168;DHT22;64927;48.214;16.378;2024-01-07T12:04:34;2.40;73.40
76168;DHT22;64927;48.214;16.378;2024-01-07T12:07:01;2.40;74.50
76168;DHT22;64927;48.214;16.378;2024-01-07T12:09:27;2.40;74.70
76168;DHT22;64927;48.214;16.378;2024-01-07T12:11:53;2.50;73.90
76168;DHT22;64927;48.214;16.378;2024-01-07T12:14:19;2.30;74.20
76168;DHT22;64927;48.214;16.378;2024-01-07T12:16:46;2.30;73.90
76168;DHT22;64927;48.214;16.378;2024-01-07T12:19:12;2.30;73.90
76168;DHT22;64927;48.214;16.378;2024-01-07T12:21:40;2.40;74.70
76168;DHT22;64927;48.214;16.378;2024-01-07T12:24:08;2.60;74.10
76168;DHT22;64927;48.214;16.378;2024-01-07T12:26:34;2.60;73.10
76168;DHT22;64927;48.214;16.378;2024-01-07T12:29:00;2.60;74.80
76168;DHT22;64927;48.214;16.378;2024-01-07T12:31:35;2.50;73.00
76168;DHT22;64927;48.214;16.378;2024-01-07T12:34:02;2.60;73.60
76168;DHT22;64927;48.214;16.378;2024-01-07T12:36:29;2.60;73.90
76168;DHT22;64927;48.214;16.378;2024-01-07T12:38:57;2.60;73.50
76168;DHT22;64927;48.214;16.378;2024-01-07T12:41:23;2.60;74.60
76168;DHT22;64927;48.214;16.378;2024-01-07T12:43:49;2.30;74.10
76168;DHT22;64927;48.214;16.378;2024-01-07T12:46:16;2.40;75.80
76168;DHT22;64927;48.214;16.378;2024-01-07T12:48:43;2.30;76.00
76168;DHT22;64927;48.214;16.378;2024-01-07T12:51:09;2.50;76.70
76168;DHT22;64927;48.214;16.378;2024-01-07T12:53:35;2.50;76.70
76168;DHT22;64927;48.214;16.378;2024-01-07T12:56:01;2.60;76.50
76168;DHT22;64927;48.214;16.378;2024-01-07T12:58:27;2.50;75.70
76168;DHT22;64927;48.214;16.378;2024-01-07T13:00:52;2.50;75.90
76168;DHT22;64927;48.214;16.378;2024-01-07T13:03:21;2.50;75.90
76168;DHT22;64927;48.214;16.378;2024-01-07T13:05:47;2.50;76.50
76168;DHT22;64927;48.214;16.378;2024-01-07T13:08:16;2.70;76.20
76168;DHT22;64927;48.214;16.378;2024-01-07T13:10:44;2.70;75.70
76168;DHT22;64927;48.214;16.378;2024-01-07T13:13:11;2.80;75.20
76168;DHT22;64927;48.214;16.378;2024-01-07T13:15:38;2.70;75.70
76168;DHT22;64927;48.214;16.378;2024-01-07T13:18:04;2.60;74.80
76168;DHT22;64927;48.214;16.378;2024-01-07T13:20:30;2.60;75.10
76168;DHT22;64927;48.214;16.378;2024-01-07T13:22:58;2.60;76.30
76168;DHT22;64927;48.214;16.378;2024-01-07T13:25:23;2.70;75.00
76168;DHT22;64927;48.214;16.378;2024-01-07T13:27:49;2.70;74.20
76168;DHT22;64927;48.214;16.378;2024-01-07T13:30:14;2.60;73.20
76168;DHT22;64927;48.214;16.378;2024-01-07T13:32:44;2.60;73.90
76168;DHT22;64927;48.214;16.378;2024-01-07T13:35:09;2.60;74.40
76168;DHT22;64927;48.214;16.378;2024-01-07T13:37:36;2.50;74.30
76168;DHT22;64927;48.214;16.378;2024-01-07T13:40:03;2.60;74.90
76168;DHT22;64927;48.214;16.378;2024-01-07T13:42:29;2.60;75.20
76168;DHT22;64927;48.214;16.378;2024-01-07T13:44:55;2.60;74.80
76168;DHT22;64927;48.214;16.378;2024-01-07T13:47:20;2.50;74.60
76168;DHT22;64927;48.214;16.378;2024-01-07T13:49:47;2.60;74.50
76168;DHT22;64927;48.214;16.378;2024-01-07T13:52:12;2.70;73.80
76168;DHT22;64927;48.214;16.378;2024-01-07T13:54:41;2.60;73.30
76168;DHT22;64927;48.214;16.378;2024-01-07T13:57:06;2.60;74.00
76168;DHT22;64927;48.214;16.378;2024-01-07T13:59:32;2.60;73.60
76168;DHT22;64927;48.214;16.378;2024-01-07T14:01:58;2.60;73.90
76168;DHT22;64927;48.214;16.378;2024-01-07T14:04:24;2.50;73.80
76168;DHT22;64927;48.214;16.378;2024-01-07T14:06:59;2.50;73.30
76168;DHT22;64927;48.214;16.378;2024-01-07T14:09:24;2.60;74.70
76168;DHT22;64927;48.214;16.378;2024-01-07T14:11:55;2.60;73.50
76168;DHT22;64927;48.214;16.378;2024-01-07T14:14:21;2.50;73.60
76168;DHT22;64927;48.214;16.378;2024-01-07T14:16:46;2.60;73.40
76168;DHT22;64927;48.214;16.378;2024-01-07T14:19:14;2.40;73.20
76168;DHT22;64927;48.214;16.378;2024-01-07T14:21:43;2.40;73.20
76168;DHT22;64927;48.214;16.378;2024-01-07T14:24:13;2.50;73.50
76168;DHT22;64927;48.214;16.378;2024-01-07T14:26:41;2.40;73.60
76168;DHT22;64927;48.214;16.378;2024-01-07T14:29:07;2.40;73.20
76168;DHT22;64927;48.214;16.378;2024-01-07T14:31:33;2.40;73.40
76168;DHT22;64927;48.214;16.378;2024-01-07T14:33:58;2.50;73.90
76168;DHT22;64927;48.214;16.378;2024-01-07T14:36:24;2.50;72.50
76168;DHT22;64927;48.214;16.378;2024-01-07T14:38:54;2.50;73.10
76168;DHT22;64927;48.214;16.378;2024-01-07T14:41:20;2.30;73.10
76168;DHT22;64927;48.214;16.378;2024-01-07T14:43:48;2.40;73.80
76168;DHT22;64927;48.214;16.378;2024-01-07T14:46:14;2.40;72.80
76168;DHT22;64927;48.214;16.378;2024-01-07T14:48:42;2.40;73.40
76168;DHT22;64927;48.214;16.378;2024-01-07T14:51:08;2.30;73.50
76168;DHT22;64927;48.214;16.378;2024-01-07T14:53:33;2.50;73.80
76168;DHT22;64927;48.214;16.378;2024-01-07T14:56:02;2.50;73.40
76168;DHT22;64927;48.214;16.378;2024-01-07T14:58:27;2.50;73.20
76168;DHT22;64927;48.214;16.378;2024-01-07T15:00:55;2.50;73.20
76168;DHT22;64927;48.214;16.378;2024-01-07T15:03:24;2.20;73.20
76168;DHT22;64927;48.214;16.378;2024-01-07T15:05:50;2.20;73.60
76168;DHT22;64927;48.214;16.378;2024-01-07T15:08:18;2.40;74.20
76168;DHT22;64927;48.214;16.378;2024-01-07T15:10:44;2.40;73.60
76168;DHT22;64927;48.214;16.378;2024-01-07T15:13:10;2.40;74.00
76168;DHT22;64927;48.214;16.378;2024-01-07T15:15:38;2.40;73.60
76168;DHT22;64927;48.214;16.378;2024-01-07T15:18:04;2.40;73.80
76168;DHT22;64927;48.214;16.378;2024-01-07T15:20:30;2.50;74.00
76168;DHT22;64927;48.214;16.378;2024-01-07T15:22:55;2.40;73.40
76168;DHT22;64927;48.214;16.378;2024-01-07T15:25:21;2.50;73.20
76168;DHT22;64927;48.214;16.378;2024-01-07T15:27:47;2.60;72.70
76168;DHT22;64927;48.214;16.378;2024-01-07T15:30:15;2.40;72.80
76168;DHT22;64927;48.214;16.378;2024-01-07T15:32:41;2.40;73.10